Airport View

Enter ICAO identifier to see the current METAR for that AWOS.

KFNL for example

KGPZ 291635Z AUTO 31012G17KT 10SM CLR 22/12 A3011

29 Jul 2014 16:46

Frequency: 118.425

Phone: 218-326-8337

Other Area AWOS: KHIB - KXVG - KFOZ - KHZX

TAF AMD KHIB 291509Z 2915/3012 32011KT P6SM VCSH BKN080 FM292000 32012KT P6SM VCSH BKN050 FM300000 34005KT P6SM SCT050